sensor_id;sensor_type;location;lat;lon;timestamp;temperature;humidity
69464;DHT22;56665;41.106;16.688;2022-07-23T00:00:48;26.21;44.02
69464;DHT22;56665;41.106;16.688;2022-07-23T00:03:53;26.20;43.88
69464;DHT22;56665;41.106;16.688;2022-07-23T00:06:57;26.21;43.66
69464;DHT22;56665;41.106;16.688;2022-07-23T00:10:01;26.20;43.49
69464;DHT22;56665;41.106;16.688;2022-07-23T00:13:05;26.16;43.46
69464;DHT22;56665;41.106;16.688;2022-07-23T00:16:09;26.14;43.39
69464;DHT22;56665;41.106;16.688;2022-07-23T00:19:12;26.16;43.31
69464;DHT22;56665;41.106;16.688;2022-07-23T00:22:16;26.16;43.52
69464;DHT22;56665;41.106;16.688;2022-07-23T00:25:22;26.20;43.20
69464;DHT22;56665;41.106;16.688;2022-07-23T00:28:25;26.21;43.07
69464;DHT22;56665;41.106;16.688;2022-07-23T00:31:29;26.17;43.26
69464;DHT22;56665;41.106;16.688;2022-07-23T00:34:33;26.23;43.21
69464;DHT22;56665;41.106;16.688;2022-07-23T00:37:37;26.27;42.92
69464;DHT22;56665;41.106;16.688;2022-07-23T00:40:41;26.26;42.90
69464;DHT22;56665;41.106;16.688;2022-07-23T00:43:45;26.27;43.06
69464;DHT22;56665;41.106;16.688;2022-07-23T00:46:55;26.30;42.57
69464;DHT22;56665;41.106;16.688;2022-07-23T00:50:00;26.30;42.76
69464;DHT22;56665;41.106;16.688;2022-07-23T00:53:05;26.31;42.24
69464;DHT22;56665;41.106;16.688;2022-07-23T00:56:10;26.34;42.60
69464;DHT22;56665;41.106;16.688;2022-07-23T00:59:14;26.39;42.96
69464;DHT22;56665;41.106;16.688;2022-07-23T01:02:18;26.37;42.44
69464;DHT22;56665;41.106;16.688;2022-07-23T01:05:21;26.39;42.40
69464;DHT22;56665;41.106;16.688;2022-07-23T01:08:25;26.40;42.31
69464;DHT22;56665;41.106;16.688;2022-07-23T01:11:29;26.37;42.21
69464;DHT22;56665;41.106;16.688;2022-07-23T01:14:33;26.40;42.21
69464;DHT22;56665;41.106;16.688;2022-07-23T01:17:37;26.36;41.98
69464;DHT22;56665;41.106;16.688;2022-07-23T01:20:41;26.30;42.31
69464;DHT22;56665;41.106;16.688;2022-07-23T01:23:45;26.27;42.40
69464;DHT22;56665;41.106;16.688;2022-07-23T01:26:50;26.29;42.30
69464;DHT22;56665;41.106;16.688;2022-07-23T01:29:55;26.30;42.46
69464;DHT22;56665;41.106;16.688;2022-07-23T01:33:00;26.27;42.25
69464;DHT22;56665;41.106;16.688;2022-07-23T01:36:04;26.27;42.39
69464;DHT22;56665;41.106;16.688;2022-07-23T01:39:08;26.29;42.03
69464;DHT22;56665;41.106;16.688;2022-07-23T01:42:12;26.29;42.07
69464;DHT22;56665;41.106;16.688;2022-07-23T01:45:16;26.30;41.91
69464;DHT22;56665;41.106;16.688;2022-07-23T01:48:24;26.26;42.08
69464;DHT22;56665;41.106;16.688;2022-07-23T01:51:52;26.23;42.25
69464;DHT22;56665;41.106;16.688;2022-07-23T01:55:24;26.20;41.92
69464;DHT22;56665;41.106;16.688;2022-07-23T01:58:28;26.19;42.30
69464;DHT22;56665;41.106;16.688;2022-07-23T02:01:32;26.17;42.19
69464;DHT22;56665;41.106;16.688;2022-07-23T02:04:36;26.19;41.95
69464;DHT22;56665;41.106;16.688;2022-07-23T02:07:40;26.17;42.56
69464;DHT22;56665;41.106;16.688;2022-07-23T02:10:44;26.19;41.78
69464;DHT22;56665;41.106;16.688;2022-07-23T02:13:49;26.16;41.94
69464;DHT22;56665;41.106;16.688;2022-07-23T02:16:53;26.16;42.17
69464;DHT22;56665;41.106;16.688;2022-07-23T02:19:56;26.17;42.32
69464;DHT22;56665;41.106;16.688;2022-07-23T02:23:00;26.19;42.31
69464;DHT22;56665;41.106;16.688;2022-07-23T02:26:04;26.19;42.32
69464;DHT22;56665;41.106;16.688;2022-07-23T02:29:08;26.17;42.01
69464;DHT22;56665;41.106;16.688;2022-07-23T02:32:13;26.12;42.21
69464;DHT22;56665;41.106;16.688;2022-07-23T02:35:17;26.09;42.29
69464;DHT22;56665;41.106;16.688;2022-07-23T02:38:21;26.10;42.26
69464;DHT22;56665;41.106;16.688;2022-07-23T02:41:25;26.09;42.15
69464;DHT22;56665;41.106;16.688;2022-07-23T02:44:28;26.10;42.49
69464;DHT22;56665;41.106;16.688;2022-07-23T02:47:33;26.12;42.25
69464;DHT22;56665;41.106;16.688;2022-07-23T02:50:38;26.07;42.23
69464;DHT22;56665;41.106;16.688;2022-07-23T02:53:43;26.03;42.34
69464;DHT22;56665;41.106;16.688;2022-07-23T02:56:47;26.07;42.74
69464;DHT22;56665;41.106;16.688;2022-07-23T02:59:50;26.13;42.44
69464;DHT22;56665;41.106;16.688;2022-07-23T03:02:55;26.12;42.36
69464;DHT22;56665;41.106;16.688;2022-07-23T03:05:59;26.10;42.69
69464;DHT22;56665;41.106;16.688;2022-07-23T03:09:03;26.07;42.80
69464;DHT22;56665;41.106;16.688;2022-07-23T03:12:08;26.10;42.95
69464;DHT22;56665;41.106;16.688;2022-07-23T03:15:11;26.09;43.20
69464;DHT22;56665;41.106;16.688;2022-07-23T03:18:15;26.06;43.28
69464;DHT22;56665;41.106;16.688;2022-07-23T03:21:19;26.09;43.56
69464;DHT22;56665;41.106;16.688;2022-07-23T03:24:23;26.12;43.83
69464;DHT22;56665;41.106;16.688;2022-07-23T03:27:46;26.12;43.76
69464;DHT22;56665;41.106;16.688;2022-07-23T03:30:50;26.13;44.23
69464;DHT22;56665;41.106;16.688;2022-07-23T03:33:54;26.14;44.36
69464;DHT22;56665;41.106;16.688;2022-07-23T03:36:58;26.16;44.65
69464;DHT22;56665;41.106;16.688;2022-07-23T03:40:02;26.13;44.65
69464;DHT22;56665;41.106;16.688;2022-07-23T03:43:07;26.20;45.04
69464;DHT22;56665;41.106;16.688;2022-07-23T03:46:10;26.20;44.98
69464;DHT22;56665;41.106;16.688;2022-07-23T03:49:14;26.16;45.38
69464;DHT22;56665;41.106;16.688;2022-07-23T03:52:19;26.14;45.66
69464;DHT22;56665;41.106;16.688;2022-07-23T03:55:23;26.17;45.98
69464;DHT22;56665;41.106;16.688;2022-07-23T03:58:26;26.17;46.10
69464;DHT22;56665;41.106;16.688;2022-07-23T04:01:30;26.17;46.20
69464;DHT22;56665;41.106;16.688;2022-07-23T04:04:35;26.14;46.35
69464;DHT22;56665;41.106;16.688;2022-07-23T04:07:39;26.17;46.69
69464;DHT22;56665;41.106;16.688;2022-07-23T04:10:43;26.21;47.05
69464;DHT22;56665;41.106;16.688;2022-07-23T04:13:49;26.26;47.49
69464;DHT22;56665;41.106;16.688;2022-07-23T04:16:53;26.33;47.47
69464;DHT22;56665;41.106;16.688;2022-07-23T04:23:07;26.37;47.80
69464;DHT22;56665;41.106;16.688;2022-07-23T04:26:13;26.43;48.24
69464;DHT22;56665;41.106;16.688;2022-07-23T04:29:17;26.45;48.14
69464;DHT22;56665;41.106;16.688;2022-07-23T04:32:21;26.54;48.33
69464;DHT22;56665;41.106;16.688;2022-07-23T04:35:25;26.62;48.08
69464;DHT22;56665;41.106;16.688;2022-07-23T04:38:37;26.73;48.58
69464;DHT22;56665;41.106;16.688;2022-07-23T04:41:41;26.84;48.70
69464;DHT22;56665;41.106;16.688;2022-07-23T04:44:45;26.98;48.69
69464;DHT22;56665;41.106;16.688;2022-07-23T04:47:50;27.19;48.36
69464;DHT22;56665;41.106;16.688;2022-07-23T04:50:54;27.39;48.46
69464;DHT22;56665;41.106;16.688;2022-07-23T04:54:01;27.60;48.79
69464;DHT22;56665;41.106;16.688;2022-07-23T04:57:05;27.80;47.96
69464;DHT22;56665;41.106;16.688;2022-07-23T05:00:09;27.97;48.00
69464;DHT22;56665;41.106;16.688;2022-07-23T05:03:13;28.18;47.93
69464;DHT22;56665;41.106;16.688;2022-07-23T05:06:18;28.38;48.01
69464;DHT22;56665;41.106;16.688;2022-07-23T05:09:23;28.58;47.68
69464;DHT22;56665;41.106;16.688;2022-07-23T05:12:28;28.79;47.62
69464;DHT22;56665;41.106;16.688;2022-07-23T05:15:32;28.97;47.64
69464;DHT22;56665;41.106;16.688;2022-07-23T05:18:35;29.17;47.44
69464;DHT22;56665;41.106;16.688;2022-07-23T05:21:39;29.37;47.20
69464;DHT22;56665;41.106;16.688;2022-07-23T05:24:43;29.58;46.86
69464;DHT22;56665;41.106;16.688;2022-07-23T05:27:49;29.81;47.26
69464;DHT22;56665;41.106;16.688;2022-07-23T05:30:52;30.05;46.81
69464;DHT22;56665;41.106;16.688;2022-07-23T05:33:56;30.23;46.67
69464;DHT22;56665;41.106;16.688;2022-07-23T05:37:00;30.46;46.34
69464;DHT22;56665;41.106;16.688;2022-07-23T05:40:06;30.72;46.89
69464;DHT22;56665;41.106;16.688;2022-07-23T05:43:11;31.05;46.45
69464;DHT22;56665;41.106;16.688;2022-07-23T05:46:15;31.35;46.29
69464;DHT22;56665;41.106;16.688;2022-07-23T05:49:22;31.64;46.22
69464;DHT22;56665;41.106;16.688;2022-07-23T05:52:45;31.93;45.81
69464;DHT22;56665;41.106;16.688;2022-07-23T05:56:15;32.27;45.44
69464;DHT22;56665;41.106;16.688;2022-07-23T05:59:19;32.62;45.19
69464;DHT22;56665;41.106;16.688;2022-07-23T06:02:23;32.93;44.29
69464;DHT22;56665;41.106;16.688;2022-07-23T06:05:27;33.14;44.28
69464;DHT22;56665;41.106;16.688;2022-07-23T06:08:32;33.47;43.39
69464;DHT22;56665;41.106;16.688;2022-07-23T06:11:37;33.81;43.30
69464;DHT22;56665;41.106;16.688;2022-07-23T06:14:41;34.13;42.90
69464;DHT22;56665;41.106;16.688;2022-07-23T06:17:44;34.48;42.86
69464;DHT22;56665;41.106;16.688;2022-07-23T06:20:49;34.70;43.21
69464;DHT22;56665;41.106;16.688;2022-07-23T06:23:53;35.00;42.51
69464;DHT22;56665;41.106;16.688;2022-07-23T06:26:57;35.21;42.01
69464;DHT22;56665;41.106;16.688;2022-07-23T06:30:01;35.54;41.54
69464;DHT22;56665;41.106;16.688;2022-07-23T06:33:06;35.81;41.12
69464;DHT22;56665;41.106;16.688;2022-07-23T06:36:10;36.03;40.62
69464;DHT22;56665;41.106;16.688;2022-07-23T06:39:14;36.27;40.19
69464;DHT22;56665;41.106;16.688;2022-07-23T06:42:23;36.57;39.92
69464;DHT22;56665;41.106;16.688;2022-07-23T06:45:34;36.88;39.31
69464;DHT22;56665;41.106;16.688;2022-07-23T06:48:38;37.17;38.77
69464;DHT22;56665;41.106;16.688;2022-07-23T06:51:41;37.47;37.88
69464;DHT22;56665;41.106;16.688;2022-07-23T06:54:45;37.69;37.88
69464;DHT22;56665;41.106;16.688;2022-07-23T06:57:49;37.99;37.41
69464;DHT22;56665;41.106;16.688;2022-07-23T07:00:53;38.31;37.06
69464;DHT22;56665;41.106;16.688;2022-07-23T07:03:57;38.62;36.58
69464;DHT22;56665;41.106;16.688;2022-07-23T07:07:01;39.00;35.84
69464;DHT22;56665;41.106;16.688;2022-07-23T07:10:06;39.40;35.00
69464;DHT22;56665;41.106;16.688;2022-07-23T07:13:12;39.78;34.00
69464;DHT22;56665;41.106;16.688;2022-07-23T07:16:16;40.17;33.30
69464;DHT22;56665;41.106;16.688;2022-07-23T07:19:20;40.66;32.29
69464;DHT22;56665;41.106;16.688;2022-07-23T07:22:23;41.27;31.51
69464;DHT22;56665;41.106;16.688;2022-07-23T07:25:27;42.22;30.54
69464;DHT22;56665;41.106;16.688;2022-07-23T07:28:31;43.41;29.54
69464;DHT22;56665;41.106;16.688;2022-07-23T07:31:35;45.08;27.66
69464;DHT22;56665;41.106;16.688;2022-07-23T07:34:40;46.72;26.29
69464;DHT22;56665;41.106;16.688;2022-07-23T07:37:44;48.74;24.02
69464;DHT22;56665;41.106;16.688;2022-07-23T07:40:48;50.59;22.35
69464;DHT22;56665;41.106;16.688;2022-07-23T07:43:51;51.88;21.71
69464;DHT22;56665;41.106;16.688;2022-07-23T07:46:55;51.67;21.68
69464;DHT22;56665;41.106;16.688;2022-07-23T07:49:59;51.64;21.82
69464;DHT22;56665;41.106;16.688;2022-07-23T07:53:03;50.69;22.31
69464;DHT22;56665;41.106;16.688;2022-07-23T07:56:07;51.73;21.27
69464;DHT22;56665;41.106;16.688;2022-07-23T07:59:11;50.49;24.19
69464;DHT22;56665;41.106;16.688;2022-07-23T08:02:14;50.25;24.79
69464;DHT22;56665;41.106;16.688;2022-07-23T08:05:23;48.27;26.56
69464;DHT22;56665;41.106;16.688;2022-07-23T08:08:27;49.17;25.80
69464;DHT22;56665;41.106;16.688;2022-07-23T08:11:31;47.28;27.43
69464;DHT22;56665;41.106;16.688;2022-07-23T08:14:34;46.75;27.71
69464;DHT22;56665;41.106;16.688;2022-07-23T08:17:40;47.77;26.58
69464;DHT22;56665;41.106;16.688;2022-07-23T08:20:44;47.19;26.74
69464;DHT22;56665;41.106;16.688;2022-07-23T08:23:48;46.58;27.13
69464;DHT22;56665;41.106;16.688;2022-07-23T08:26:52;47.80;25.93
69464;DHT22;56665;41.106;16.688;2022-07-23T08:29:56;46.20;27.20
69464;DHT22;56665;41.106;16.688;2022-07-23T08:33:05;46.54;27.04
69464;DHT22;56665;41.106;16.688;2022-07-23T08:36:10;47.36;26.41
69464;DHT22;56665;41.106;16.688;2022-07-23T08:39:14;45.25;28.29
69464;DHT22;56665;41.106;16.688;2022-07-23T08:42:18;45.73;27.95
69464;DHT22;56665;41.106;16.688;2022-07-23T08:45:27;45.26;28.41
69464;DHT22;56665;41.106;16.688;2022-07-23T08:48:33;45.25;28.69
69464;DHT22;56665;41.106;16.688;2022-07-23T08:51:38;46.24;27.96
69464;DHT22;56665;41.106;16.688;2022-07-23T08:54:41;45.01;29.04
69464;DHT22;56665;41.106;16.688;2022-07-23T08:57:49;46.13;27.99
69464;DHT22;56665;41.106;16.688;2022-07-23T09:00:53;45.96;27.99
69464;DHT22;56665;41.106;16.688;2022-07-23T09:03:57;44.84;29.04
69464;DHT22;56665;41.106;16.688;2022-07-23T09:07:02;45.56;28.54
69464;DHT22;56665;41.106;16.688;2022-07-23T09:10:10;45.04;29.28
69464;DHT22;56665;41.106;16.688;2022-07-23T09:16:33;43.41;31.22
69464;DHT22;56665;41.106;16.688;2022-07-23T09:19:38;42.42;32.50
69464;DHT22;56665;41.106;16.688;2022-07-23T09:22:45;42.37;32.59
69464;DHT22;56665;41.106;16.688;2022-07-23T09:25:49;41.58;33.33
69464;DHT22;56665;41.106;16.688;2022-07-23T09:29:32;42.22;32.46
69464;DHT22;56665;41.106;16.688;2022-07-23T09:32:35;42.50;32.76
69464;DHT22;56665;41.106;16.688;2022-07-23T09:35:50;42.33;32.96
69464;DHT22;56665;41.106;16.688;2022-07-23T09:38:54;42.29;32.62
69464;DHT22;56665;41.106;16.688;2022-07-23T09:45:16;41.47;34.26
69464;DHT22;56665;41.106;16.688;2022-07-23T09:48:21;41.40;33.77
69464;DHT22;56665;41.106;16.688;2022-07-23T09:51:25;41.11;34.93
69464;DHT22;56665;41.106;16.688;2022-07-23T09:54:38;41.48;34.32
69464;DHT22;56665;41.106;16.688;2022-07-23T09:57:44;41.72;33.53
69464;DHT22;56665;41.106;16.688;2022-07-23T10:00:48;41.35;34.28
69464;DHT22;56665;41.106;16.688;2022-07-23T10:03:53;41.27;34.26
69464;DHT22;56665;41.106;16.688;2022-07-23T10:07:25;41.44;34.06
69464;DHT22;56665;41.106;16.688;2022-07-23T10:10:56;40.15;35.85
69464;DHT22;56665;41.106;16.688;2022-07-23T10:14:19;39.94;36.24
69464;DHT22;56665;41.106;16.688;2022-07-23T10:17:43;40.04;35.81
69464;DHT22;56665;41.106;16.688;2022-07-23T10:20:48;39.70;36.31
69464;DHT22;56665;41.106;16.688;2022-07-23T10:24:08;39.39;36.98
69464;DHT22;56665;41.106;16.688;2022-07-23T10:30:41;39.77;35.97
69464;DHT22;56665;41.106;16.688;2022-07-23T10:37:37;40.04;36.02
69464;DHT22;56665;41.106;16.688;2022-07-23T10:40:56;40.21;35.51
69464;DHT22;56665;41.106;16.688;2022-07-23T10:47:28;39.26;37.23
69464;DHT22;56665;41.106;16.688;2022-07-23T10:51:05;38.58;37.33
69464;DHT22;56665;41.106;16.688;2022-07-23T10:54:20;38.85;37.41
69464;DHT22;56665;41.106;16.688;2022-07-23T10:57:26;38.69;37.24
69464;DHT22;56665;41.106;16.688;2022-07-23T11:00:34;39.40;36.46
69464;DHT22;56665;41.106;16.688;2022-07-23T11:03:38;39.13;36.87
69464;DHT22;56665;41.106;16.688;2022-07-23T11:09:52;39.35;37.00
69464;DHT22;56665;41.106;16.688;2022-07-23T11:13:30;39.46;36.64
69464;DHT22;56665;41.106;16.688;2022-07-23T11:16:46;39.67;35.82
69464;DHT22;56665;41.106;16.688;2022-07-23T11:23:12;39.56;36.16
69464;DHT22;56665;41.106;16.688;2022-07-23T11:26:46;38.71;37.03
69464;DHT22;56665;41.106;16.688;2022-07-23T11:29:50;37.79;38.38
69464;DHT22;56665;41.106;16.688;2022-07-23T11:33:17;38.01;37.55
69464;DHT22;56665;41.106;16.688;2022-07-23T11:36:21;38.19;37.65
69464;DHT22;56665;41.106;16.688;2022-07-23T11:39:26;37.87;37.84
69464;DHT22;56665;41.106;16.688;2022-07-23T11:42:30;37.92;37.72
69464;DHT22;56665;41.106;16.688;2022-07-23T11:45:39;37.61;37.49
69464;DHT22;56665;41.106;16.688;2022-07-23T11:48:43;36.88;39.52
69464;DHT22;56665;41.106;16.688;2022-07-23T11:51:46;36.87;39.63
69464;DHT22;56665;41.106;16.688;2022-07-23T11:57:59;37.39;38.07
69464;DHT22;56665;41.106;16.688;2022-07-23T12:01:03;37.51;38.13
69464;DHT22;56665;41.106;16.688;2022-07-23T12:04:09;37.86;37.16
69464;DHT22;56665;41.106;16.688;2022-07-23T12:07:42;37.80;36.40
69464;DHT22;56665;41.106;16.688;2022-07-23T12:10:47;37.38;36.66
69464;DHT22;56665;41.106;16.688;2022-07-23T12:13:57;38.03;35.81
69464;DHT22;56665;41.106;16.688;2022-07-23T12:17:10;37.77;35.23
69464;DHT22;56665;41.106;16.688;2022-07-23T12:20:38;37.90;34.70
69464;DHT22;56665;41.106;16.688;2022-07-23T12:23:48;38.00;33.07
69464;DHT22;56665;41.106;16.688;2022-07-23T12:27:09;37.51;33.18
69464;DHT22;56665;41.106;16.688;2022-07-23T12:30:17;37.04;33.28
69464;DHT22;56665;41.106;16.688;2022-07-23T12:33:37;37.47;32.20
69464;DHT22;56665;41.106;16.688;2022-07-23T12:36:41;37.49;31.77
69464;DHT22;56665;41.106;16.688;2022-07-23T12:39:44;37.53;31.83
69464;DHT22;56665;41.106;16.688;2022-07-23T12:42:51;37.12;32.36
69464;DHT22;56665;41.106;16.688;2022-07-23T12:46:03;37.11;32.35
69464;DHT22;56665;41.106;16.688;2022-07-23T12:49:06;37.69;31.68
69464;DHT22;56665;41.106;16.688;2022-07-23T12:52:16;37.77;31.01
69464;DHT22;56665;41.106;16.688;2022-07-23T12:55:27;37.87;30.53
69464;DHT22;56665;41.106;16.688;2022-07-23T12:58:52;37.83;30.05
69464;DHT22;56665;41.106;16.688;2022-07-23T13:01:57;37.45;30.59
69464;DHT22;56665;41.106;16.688;2022-07-23T13:05:04;37.43;31.33
69464;DHT22;56665;41.106;16.688;2022-07-23T13:08:07;37.66;30.47
69464;DHT22;56665;41.106;16.688;2022-07-23T13:11:11;37.68;30.46
69464;DHT22;56665;41.106;16.688;2022-07-23T13:14:16;38.09;29.85
69464;DHT22;56665;41.106;16.688;2022-07-23T13:17:21;37.96;30.01
69464;DHT22;56665;41.106;16.688;2022-07-23T13:20:26;37.53;30.66
69464;DHT22;56665;41.106;16.688;2022-07-23T13:23:29;37.58;30.09
69464;DHT22;56665;41.106;16.688;2022-07-23T13:26:33;38.17;29.48
69464;DHT22;56665;41.106;16.688;2022-07-23T13:29:37;38.25;28.71
69464;DHT22;56665;41.106;16.688;2022-07-23T13:32:41;38.31;28.83
69464;DHT22;56665;41.106;16.688;2022-07-23T13:35:46;37.84;29.26
69464;DHT22;56665;41.106;16.688;2022-07-23T13:38:50;38.25;27.96
69464;DHT22;56665;41.106;16.688;2022-07-23T13:41:54;38.40;27.77
69464;DHT22;56665;41.106;16.688;2022-07-23T13:44:58;38.67;28.24
69464;DHT22;56665;41.106;16.688;2022-07-23T13:48:02;38.86;27.25
69464;DHT22;56665;41.106;16.688;2022-07-23T13:51:07;38.31;27.07
69464;DHT22;56665;41.106;16.688;2022-07-23T13:54:11;37.63;27.52
69464;DHT22;56665;41.106;16.688;2022-07-23T13:57:15;37.41;28.09
69464;DHT22;56665;41.106;16.688;2022-07-23T14:00:19;37.41;27.65
69464;DHT22;56665;41.106;16.688;2022-07-23T14:03:23;37.56;27.14
69464;DHT22;56665;41.106;16.688;2022-07-23T14:06:26;38.23;27.12
69464;DHT22;56665;41.106;16.688;2022-07-23T14:09:30;38.21;26.85
69464;DHT22;56665;41.106;16.688;2022-07-23T14:12:37;38.38;26.81
69464;DHT22;56665;41.106;16.688;2022-07-23T14:15:41;38.55;27.07
69464;DHT22;56665;41.106;16.688;2022-07-23T14:18:45;37.80;27.73
69464;DHT22;56665;41.106;16.688;2022-07-23T14:21:51;38.14;27.52
69464;DHT22;56665;41.106;16.688;2022-07-23T14:24:58;38.31;27.33
69464;DHT22;56665;41.106;16.688;2022-07-23T14:28:02;38.28;27.67
69464;DHT22;56665;41.106;16.688;2022-07-23T14:31:05;37.86;28.01
69464;DHT22;56665;41.106;16.688;2022-07-23T14:34:09;37.63;28.40
69464;DHT22;56665;41.106;16.688;2022-07-23T14:37:18;37.51;28.69
69464;DHT22;56665;41.106;16.688;2022-07-23T14:40:22;37.59;27.65
69464;DHT22;56665;41.106;16.688;2022-07-23T14:43:27;37.39;27.43
69464;DHT22;56665;41.106;16.688;2022-07-23T14:46:31;36.95;28.08
69464;DHT22;56665;41.106;16.688;2022-07-23T14:49:35;36.67;28.52
69464;DHT22;56665;41.106;16.688;2022-07-23T14:52:38;36.64;27.88
69464;DHT22;56665;41.106;16.688;2022-07-23T14:55:42;36.56;27.82
69464;DHT22;56665;41.106;16.688;2022-07-23T14:58:47;36.40;28.47
69464;DHT22;56665;41.106;16.688;2022-07-23T15:01:52;36.47;28.58
69464;DHT22;56665;41.106;16.688;2022-07-23T15:04:56;36.29;28.20
69464;DHT22;56665;41.106;16.688;2022-07-23T15:08:04;36.25;28.28
69464;DHT22;56665;41.106;16.688;2022-07-23T15:11:08;36.15;28.92
69464;DHT22;56665;41.106;16.688;2022-07-23T15:14:12;36.09;28.73
69464;DHT22;56665;41.106;16.688;2022-07-23T15:17:16;36.15;28.54
69464;DHT22;56665;41.106;16.688;2022-07-23T15:20:19;36.15;28.99
69464;DHT22;56665;41.106;16.688;2022-07-23T15:23:23;35.88;29.14
69464;DHT22;56665;41.106;16.688;2022-07-23T15:26:27;35.92;28.88
69464;DHT22;56665;41.106;16.688;2022-07-23T15:29:32;35.92;28.92
69464;DHT22;56665;41.106;16.688;2022-07-23T15:32:36;35.86;29.12
69464;DHT22;56665;41.106;16.688;2022-07-23T15:35:40;35.96;29.29
69464;DHT22;56665;41.106;16.688;2022-07-23T15:38:44;35.95;29.41
69464;DHT22;56665;41.106;16.688;2022-07-23T15:41:47;35.76;29.53
69464;DHT22;56665;41.106;16.688;2022-07-23T15:44:51;35.65;30.05
69464;DHT22;56665;41.106;16.688;2022-07-23T15:47:55;35.65;30.27
69464;DHT22;56665;41.106;16.688;2022-07-23T15:50:59;35.49;30.52
69464;DHT22;56665;41.106;16.688;2022-07-23T15:54:04;35.52;30.81
69464;DHT22;56665;41.106;16.688;2022-07-23T15:57:08;35.51;30.73
69464;DHT22;56665;41.106;16.688;2022-07-23T16:00:15;35.33;30.76
69464;DHT22;56665;41.106;16.688;2022-07-23T16:03:20;35.27;31.09
69464;DHT22;56665;41.106;16.688;2022-07-23T16:06:26;35.15;31.17
69464;DHT22;56665;41.106;16.688;2022-07-23T16:09:31;35.20;31.37
69464;DHT22;56665;41.106;16.688;2022-07-23T16:12:34;35.15;31.30
69464;DHT22;56665;41.106;16.688;2022-07-23T16:15:38;35.08;31.21
69464;DHT22;56665;41.106;16.688;2022-07-23T16:18:44;35.00;31.17
69464;DHT22;56665;41.106;16.688;2022-07-23T16:21:50;35.00;31.30
69464;DHT22;56665;41.106;16.688;2022-07-23T16:24:53;35.06;31.33
69464;DHT22;56665;41.106;16.688;2022-07-23T16:27:57;34.97;31.48
69464;DHT22;56665;41.106;16.688;2022-07-23T16:31:02;34.86;31.81
69464;DHT22;56665;41.106;16.688;2022-07-23T16:34:06;34.74;32.13
69464;DHT22;56665;41.106;16.688;2022-07-23T16:37:13;34.60;32.26
69464;DHT22;56665;41.106;16.688;2022-07-23T16:40:16;34.40;32.45
69464;DHT22;56665;41.106;16.688;2022-07-23T16:43:23;34.40;32.63
69464;DHT22;56665;41.106;16.688;2022-07-23T16:46:27;34.35;32.69
69464;DHT22;56665;41.106;16.688;2022-07-23T16:49:32;34.31;33.00
69464;DHT22;56665;41.106;16.688;2022-07-23T16:52:37;34.19;33.23
69464;DHT22;56665;41.106;16.688;2022-07-23T16:55:41;34.11;33.43
69464;DHT22;56665;41.106;16.688;2022-07-23T16:58:45;34.04;33.41
69464;DHT22;56665;41.106;16.688;2022-07-23T17:01:48;34.01;33.59
69464;DHT22;56665;41.106;16.688;2022-07-23T17:04:52;33.92;33.79
69464;DHT22;56665;41.106;16.688;2022-07-23T17:07:56;33.88;34.08
69464;DHT22;56665;41.106;16.688;2022-07-23T17:11:00;33.84;34.33
69464;DHT22;56665;41.106;16.688;2022-07-23T17:14:04;33.71;34.72
69464;DHT22;56665;41.106;16.688;2022-07-23T17:17:08;33.68;34.92
69464;DHT22;56665;41.106;16.688;2022-07-23T17:20:16;33.62;35.03
69464;DHT22;56665;41.106;16.688;2022-07-23T17:23:19;33.57;35.15
69464;DHT22;56665;41.106;16.688;2022-07-23T17:26:23;33.53;35.13
69464;DHT22;56665;41.106;16.688;2022-07-23T17:29:27;33.44;35.11
69464;DHT22;56665;41.106;16.688;2022-07-23T17:32:30;33.33;35.08
69464;DHT22;56665;41.106;16.688;2022-07-23T17:35:34;33.33;35.01
69464;DHT22;56665;41.106;16.688;2022-07-23T17:38:38;33.24;34.98
69464;DHT22;56665;41.106;16.688;2022-07-23T17:41:42;33.13;35.20
69464;DHT22;56665;41.106;16.688;2022-07-23T17:44:50;33.06;35.38
69464;DHT22;56665;41.106;16.688;2022-07-23T17:47:54;32.99;35.31
69464;DHT22;56665;41.106;16.688;2022-07-23T17:50:58;32.92;35.02
69464;DHT22;56665;41.106;16.688;2022-07-23T17:54:03;32.90;34.86
69464;DHT22;56665;41.106;16.688;2022-07-23T17:57:07;32.86;35.10
69464;DHT22;56665;41.106;16.688;2022-07-23T18:00:16;32.75;35.06
69464;DHT22;56665;41.106;16.688;2022-07-23T18:03:20;32.66;34.77
69464;DHT22;56665;41.106;16.688;2022-07-23T18:06:24;32.62;34.91
69464;DHT22;56665;41.106;16.688;2022-07-23T18:09:28;32.55;35.02
69464;DHT22;56665;41.106;16.688;2022-07-23T18:12:32;32.46;35.12
69464;DHT22;56665;41.106;16.688;2022-07-23T18:15:36;32.45;35.08
69464;DHT22;56665;41.106;16.688;2022-07-23T18:18:40;32.34;34.98
69464;DHT22;56665;41.106;16.688;2022-07-23T18:21:44;32.27;34.85
69464;DHT22;56665;41.106;16.688;2022-07-23T18:24:47;32.21;35.17
69464;DHT22;56665;41.106;16.688;2022-07-23T18:27:51;32.18;34.77
69464;DHT22;56665;41.106;16.688;2022-07-23T18:30:57;32.14;34.80
69464;DHT22;56665;41.106;16.688;2022-07-23T18:34:01;32.04;35.08
69464;DHT22;56665;41.106;16.688;2022-07-23T18:37:07;32.00;35.21
69464;DHT22;56665;41.106;16.688;2022-07-23T18:40:11;31.97;35.04
69464;DHT22;56665;41.106;16.688;2022-07-23T18:43:16;31.97;34.84
69464;DHT22;56665;41.106;16.688;2022-07-23T18:46:19;31.94;34.86
69464;DHT22;56665;41.106;16.688;2022-07-23T18:49:23;31.91;34.84
69464;DHT22;56665;41.106;16.688;2022-07-23T18:52:27;31.86;35.00
69464;DHT22;56665;41.106;16.688;2022-07-23T18:55:30;31.84;35.30
69464;DHT22;56665;41.106;16.688;2022-07-23T18:58:34;31.80;35.42
69464;DHT22;56665;41.106;16.688;2022-07-23T19:01:38;31.76;35.64
69464;DHT22;56665;41.106;16.688;2022-07-23T19:04:42;31.70;36.15
69464;DHT22;56665;41.106;16.688;2022-07-23T19:07:46;31.63;36.56
69464;DHT22;56665;41.106;16.688;2022-07-23T19:10:50;31.59;37.00
69464;DHT22;56665;41.106;16.688;2022-07-23T19:13:53;31.60;37.55
69464;DHT22;56665;41.106;16.688;2022-07-23T19:16:57;31.47;38.49
69464;DHT22;56665;41.106;16.688;2022-07-23T19:20:02;31.37;38.85
69464;DHT22;56665;41.106;16.688;2022-07-23T19:23:06;31.22;39.59
69464;DHT22;56665;41.106;16.688;2022-07-23T19:26:10;31.09;39.80
69464;DHT22;56665;41.106;16.688;2022-07-23T19:29:13;30.98;39.72
69464;DHT22;56665;41.106;16.688;2022-07-23T19:32:17;30.87;39.65
69464;DHT22;56665;41.106;16.688;2022-07-23T19:35:21;30.84;39.60
69464;DHT22;56665;41.106;16.688;2022-07-23T19:38:24;30.79;39.48
69464;DHT22;56665;41.106;16.688;2022-07-23T19:41:28;30.75;39.03
69464;DHT22;56665;41.106;16.688;2022-07-23T19:44:34;30.74;38.67